Airfield :







YOU CAN JOIN US ON...

 
LOGIN :

Register | Disclaimer

   EN    FR    IT 

 









Legend :    VFR   Marginal VFR   IFR   Intensive IFR   Very Intensive IFR
Visi :
Ceiling :
>= 8 km
>= 3000ft
5 to 8 km
1000 to 3000 ft
1500m to 5 km
500 to 1000 ft
800 to 1500m
200 to 500 ft
< 800m
< 200 ft
Symbols :   Thunderstorms  Fog  Heavy snow  Heavy precipitations  Wind > 20 kt






- Airport Elevation : 6 ft
- IATA code : AEY


BIAR - Akureyri

CURRENT METAR :
  • 230100Z 19009KT 9999 BKN050 11/05 Q1001

EXPIRED METARs :
  • 230000Z 17007KT 9999 BKN048 11/06 Q1001
  • 222300Z 22007KT 150V300 9999 SCT045 BKN050 13/04 Q1000
  • 222200Z 22008KT 190V250 9999 SCT038 BKN051 13/04 Q1000
  • 222100Z 21007G18KT 130V250 9999 SCT030 BKN050 13/05 Q0999

TAF TAF BIAR
Valid from the 23 at 00:00 until the 24 at 00:00 UTC


222242Z 2300/2400 22010KT 9999 SCT030 BKN050 TX17/2315Z TN09/2305Z



MET'MAP, your aeronautical weather chart ! - Copyright ORBIFLY December 2007 - Disclaimer

ORBIFLY MET'MAP TEAM :

Programming & Development : Alexandra Zaïnal
Original concept : Baudouin d'Aumeries
Technical & hardware support : Manuel Goepfert
Assistance : Marc-Olivier Méhu




SOURCES & CREDITS :

   NOAA